sensor_id;sensor_type;location;lat;lon;timestamp;pressure;altitude;pressure_sealevel;temperature;humidity
35758;BME280;21879;50.110;18.900;2022-07-23T00:02:46;98691.95;;;23.04;56.41
35758;BME280;21879;50.110;18.900;2022-07-23T00:13:15;98691.81;;;22.97;56.95
35758;BME280;21879;50.110;18.900;2022-07-23T00:23:44;98695.71;;;22.85;57.12
35758;BME280;21879;50.110;18.900;2022-07-23T00:34:13;98692.70;;;22.70;57.29
35758;BME280;21879;50.110;18.900;2022-07-23T00:44:42;98697.14;;;22.60;57.45
35758;BME280;21879;50.110;18.900;2022-07-23T00:55:13;98700.40;;;22.50;57.82
35758;BME280;21879;50.110;18.900;2022-07-23T01:05:42;98697.16;;;22.20;57.16
35758;BME280;21879;50.110;18.900;2022-07-23T01:16:11;98699.64;;;22.04;57.42
35758;BME280;21879;50.110;18.900;2022-07-23T01:26:42;98709.23;;;21.91;58.12
35758;BME280;21879;50.110;18.900;2022-07-23T01:37:11;98698.19;;;21.70;58.40
35758;BME280;21879;50.110;18.900;2022-07-23T01:47:40;98697.98;;;21.67;58.51
35758;BME280;21879;50.110;18.900;2022-07-23T01:58:09;98693.80;;;21.59;58.30
35758;BME280;21879;50.110;18.900;2022-07-23T02:08:38;98691.02;;;21.49;57.94
35758;BME280;21879;50.110;18.900;2022-07-23T02:19:07;98696.20;;;21.31;57.65
35758;BME280;21879;50.110;18.900;2022-07-23T02:29:36;98699.20;;;21.21;58.66
35758;BME280;21879;50.110;18.900;2022-07-23T02:40:07;98694.58;;;21.22;58.87
35758;BME280;21879;50.110;18.900;2022-07-23T02:50:36;98687.60;;;21.16;58.59
35758;BME280;21879;50.110;18.900;2022-07-23T03:01:05;98681.45;;;20.99;58.59
35758;BME280;21879;50.110;18.900;2022-07-23T03:11:34;98676.44;;;20.93;59.01
35758;BME280;21879;50.110;18.900;2022-07-23T03:22:03;98682.52;;;20.85;58.62
35758;BME280;21879;50.110;18.900;2022-07-23T03:32:32;98680.45;;;20.77;58.70
35758;BME280;21879;50.110;18.900;2022-07-23T03:43:01;98680.23;;;20.78;59.02
35758;BME280;21879;50.110;18.900;2022-07-23T03:53:30;98684.19;;;20.87;59.31
35758;BME280;21879;50.110;18.900;2022-07-23T04:03:59;98685.14;;;20.92;58.95
35758;BME280;21879;50.110;18.900;2022-07-23T04:14:28;98678.56;;;20.86;59.35
35758;BME280;21879;50.110;18.900;2022-07-23T04:24:57;98682.21;;;20.98;59.69
35758;BME280;21879;50.110;18.900;2022-07-23T04:35:26;98687.44;;;20.99;60.46
35758;BME280;21879;50.110;18.900;2022-07-23T04:45:55;98679.81;;;21.40;61.09
35758;BME280;21879;50.110;18.900;2022-07-23T04:56:24;98675.16;;;21.73;61.74
35758;BME280;21879;50.110;18.900;2022-07-23T05:06:53;98663.73;;;22.04;60.80
35758;BME280;21879;50.110;18.900;2022-07-23T05:17:22;98662.34;;;22.55;61.35
35758;BME280;21879;50.110;18.900;2022-07-23T05:27:51;98672.08;;;23.24;60.55
35758;BME280;21879;50.110;18.900;2022-07-23T05:38:20;98665.58;;;23.88;59.97
35758;BME280;21879;50.110;18.900;2022-07-23T05:48:49;98650.63;;;24.92;58.72
35758;BME280;21879;50.110;18.900;2022-07-23T05:59:18;98628.96;;;25.80;55.95
35758;BME280;21879;50.110;18.900;2022-07-23T06:09:47;98611.36;;;26.56;53.93
35758;BME280;21879;50.110;18.900;2022-07-23T06:20:16;98603.84;;;27.43;53.01
35758;BME280;21879;50.110;18.900;2022-07-23T06:30:45;98607.66;;;28.13;51.39
35758;BME280;21879;50.110;18.900;2022-07-23T06:41:16;98608.11;;;28.78;49.73
35758;BME280;21879;50.110;18.900;2022-07-23T06:51:45;98608.63;;;29.30;47.93
35758;BME280;21879;50.110;18.900;2022-07-23T07:02:14;98601.66;;;29.64;46.92
35758;BME280;21879;50.110;18.900;2022-07-23T07:12:43;98598.27;;;30.04;46.11
35758;BME280;21879;50.110;18.900;2022-07-23T07:23:13;98589.77;;;30.36;44.63
35758;BME280;21879;50.110;18.900;2022-07-23T07:33:43;98596.27;;;30.66;44.02
35758;BME280;21879;50.110;18.900;2022-07-23T07:44:13;98611.25;;;30.83;42.91
35758;BME280;21879;50.110;18.900;2022-07-23T07:54:42;98611.53;;;30.93;41.40
35758;BME280;21879;50.110;18.900;2022-07-23T08:05:12;98610.89;;;30.83;40.65
35758;BME280;21879;50.110;18.900;2022-07-23T08:15:41;98594.32;;;30.81;40.94
35758;BME280;21879;50.110;18.900;2022-07-23T08:26:10;98557.16;;;31.06;41.13
35758;BME280;21879;50.110;18.900;2022-07-23T08:36:39;98557.39;;;31.30;40.53
35758;BME280;21879;50.110;18.900;2022-07-23T08:47:08;98560.38;;;31.47;39.81
35758;BME280;21879;50.110;18.900;2022-07-23T08:57:37;98563.08;;;31.50;39.92
35758;BME280;21879;50.110;18.900;2022-07-23T09:08:11;98564.64;;;31.57;39.06
35758;BME280;21879;50.110;18.900;2022-07-23T09:18:44;98566.55;;;31.82;39.12
35758;BME280;21879;50.110;18.900;2022-07-23T09:29:15;98563.10;;;31.97;37.62
35758;BME280;21879;50.110;18.900;2022-07-23T09:39:46;98557.61;;;32.06;37.77
35758;BME280;21879;50.110;18.900;2022-07-23T09:50:16;98557.08;;;32.06;35.76
35758;BME280;21879;50.110;18.900;2022-07-23T10:00:53;98556.71;;;32.11;35.52
35758;BME280;21879;50.110;18.900;2022-07-23T10:11:23;98545.98;;;32.14;35.33
35758;BME280;21879;50.110;18.900;2022-07-23T10:21:54;98539.16;;;32.01;34.39
35758;BME280;21879;50.110;18.900;2022-07-23T10:32:40;98530.42;;;32.00;33.88
35758;BME280;21879;50.110;18.900;2022-07-23T10:43:17;98519.27;;;32.18;34.17
35758;BME280;21879;50.110;18.900;2022-07-23T10:53:58;98512.55;;;32.28;34.10
35758;BME280;21879;50.110;18.900;2022-07-23T11:04:49;98502.33;;;32.49;33.49
35758;BME280;21879;50.110;18.900;2022-07-23T11:15:18;98486.88;;;32.64;33.03
35758;BME280;21879;50.110;18.900;2022-07-23T11:25:47;98474.26;;;32.68;32.37
35758;BME280;21879;50.110;18.900;2022-07-23T11:36:16;98467.20;;;32.66;32.07
35758;BME280;21879;50.110;18.900;2022-07-23T11:46:56;98458.23;;;32.73;32.21
35758;BME280;21879;50.110;18.900;2022-07-23T11:57:28;98441.86;;;32.80;31.96
35758;BME280;21879;50.110;18.900;2022-07-23T12:07:58;98422.65;;;32.89;32.38
35758;BME280;21879;50.110;18.900;2022-07-23T12:18:28;98425.85;;;32.99;32.57
35758;BME280;21879;50.110;18.900;2022-07-23T12:28:58;98426.31;;;32.75;31.92
35758;BME280;21879;50.110;18.900;2022-07-23T12:39:36;98409.21;;;32.53;34.88
35758;BME280;21879;50.110;18.900;2022-07-23T12:50:06;98395.04;;;32.28;36.22
35758;BME280;21879;50.110;18.900;2022-07-23T13:00:53;98395.48;;;32.03;37.92
35758;BME280;21879;50.110;18.900;2022-07-23T13:11:22;98402.79;;;31.82;38.66
35758;BME280;21879;50.110;18.900;2022-07-23T13:21:54;98401.86;;;31.51;40.98
35758;BME280;21879;50.110;18.900;2022-07-23T13:32:25;98391.13;;;30.76;43.81
35758;BME280;21879;50.110;18.900;2022-07-23T13:42:54;98393.67;;;29.79;46.07
35758;BME280;21879;50.110;18.900;2022-07-23T13:53:24;98427.21;;;29.08;47.28
35758;BME280;21879;50.110;18.900;2022-07-23T14:03:53;98460.02;;;28.38;49.85
35758;BME280;21879;50.110;18.900;2022-07-23T14:14:23;98453.15;;;26.86;51.76
35758;BME280;21879;50.110;18.900;2022-07-23T14:24:52;98433.42;;;26.47;55.10
35758;BME280;21879;50.110;18.900;2022-07-23T14:35:23;98449.85;;;26.61;57.00
35758;BME280;21879;50.110;18.900;2022-07-23T14:45:52;98457.48;;;27.08;55.62
35758;BME280;21879;50.110;18.900;2022-07-23T14:56:22;98462.66;;;27.30;53.46
35758;BME280;21879;50.110;18.900;2022-07-23T15:06:51;98461.77;;;27.48;52.49
35758;BME280;21879;50.110;18.900;2022-07-23T15:17:20;98449.88;;;27.38;51.14
35758;BME280;21879;50.110;18.900;2022-07-23T15:27:53;98456.79;;;27.17;50.76
35758;BME280;21879;50.110;18.900;2022-07-23T15:38:22;98469.91;;;27.04;50.70
35758;BME280;21879;50.110;18.900;2022-07-23T15:48:52;98478.02;;;26.92;51.01
35758;BME280;21879;50.110;18.900;2022-07-23T15:59:21;98473.75;;;26.74;51.55
35758;BME280;21879;50.110;18.900;2022-07-23T16:09:55;98466.30;;;26.64;51.74
35758;BME280;21879;50.110;18.900;2022-07-23T16:20:24;98468.70;;;26.75;52.02
35758;BME280;21879;50.110;18.900;2022-07-23T16:30:53;98479.19;;;26.84;52.22
35758;BME280;21879;50.110;18.900;2022-07-23T16:41:22;98501.48;;;26.82;51.49
35758;BME280;21879;50.110;18.900;2022-07-23T16:51:51;98499.11;;;26.65;51.57
35758;BME280;21879;50.110;18.900;2022-07-23T17:02:21;98516.48;;;26.59;51.76
35758;BME280;21879;50.110;18.900;2022-07-23T17:12:50;98548.69;;;26.65;53.49
35758;BME280;21879;50.110;18.900;2022-07-23T17:23:21;98551.80;;;26.50;52.72
35758;BME280;21879;50.110;18.900;2022-07-23T17:33:51;98573.59;;;26.42;53.56
35758;BME280;21879;50.110;18.900;2022-07-23T17:44:20;98569.39;;;26.45;54.45
35758;BME280;21879;50.110;18.900;2022-07-23T17:54:49;98586.60;;;26.52;54.63
35758;BME280;21879;50.110;18.900;2022-07-23T18:05:18;98582.71;;;26.48;55.03
35758;BME280;21879;50.110;18.900;2022-07-23T18:15:47;98579.64;;;26.30;55.11
35758;BME280;21879;50.110;18.900;2022-07-23T18:26:16;98592.62;;;26.26;56.01
35758;BME280;21879;50.110;18.900;2022-07-23T18:36:45;98610.64;;;26.11;56.04
35758;BME280;21879;50.110;18.900;2022-07-23T18:47:15;98632.75;;;25.94;55.91
35758;BME280;21879;50.110;18.900;2022-07-23T18:57:44;98661.25;;;25.89;56.18
35758;BME280;21879;50.110;18.900;2022-07-23T19:08:14;98674.38;;;25.83;57.13
35758;BME280;21879;50.110;18.900;2022-07-23T19:18:44;98684.16;;;25.78;57.36
35758;BME280;21879;50.110;18.900;2022-07-23T19:29:13;98685.86;;;25.72;57.44
35758;BME280;21879;50.110;18.900;2022-07-23T19:39:43;98701.83;;;25.57;57.73
35758;BME280;21879;50.110;18.900;2022-07-23T19:50:13;98708.23;;;25.42;57.84
35758;BME280;21879;50.110;18.900;2022-07-23T20:00:43;98711.32;;;25.31;57.88
35758;BME280;21879;50.110;18.900;2022-07-23T20:11:12;98709.71;;;25.13;58.19
35758;BME280;21879;50.110;18.900;2022-07-23T20:21:41;98708.95;;;25.01;58.18
35758;BME280;21879;50.110;18.900;2022-07-23T20:32:13;98705.05;;;24.82;58.34
35758;BME280;21879;50.110;18.900;2022-07-23T20:42:42;98702.31;;;24.65;58.77
35758;BME280;21879;50.110;18.900;2022-07-23T20:53:11;98695.30;;;24.33;59.38
35758;BME280;21879;50.110;18.900;2022-07-23T21:03:40;98693.23;;;24.25;60.10
35758;BME280;21879;50.110;18.900;2022-07-23T21:14:09;98703.93;;;24.32;60.24
35758;BME280;21879;50.110;18.900;2022-07-23T21:24:39;98720.41;;;24.33;59.85
35758;BME280;21879;50.110;18.900;2022-07-23T21:35:10;98740.38;;;24.32;60.02
35758;BME280;21879;50.110;18.900;2022-07-23T21:45:39;98762.06;;;24.34;60.45
35758;BME280;21879;50.110;18.900;2022-07-23T21:56:08;98788.73;;;23.97;61.85
35758;BME280;21879;50.110;18.900;2022-07-23T22:06:37;98767.76;;;23.08;63.45
35758;BME280;21879;50.110;18.900;2022-07-23T22:17:07;98778.47;;;22.73;64.49
35758;BME280;21879;50.110;18.900;2022-07-23T22:27:37;98766.71;;;22.62;64.57
35758;BME280;21879;50.110;18.900;2022-07-23T22:38:06;98779.11;;;22.74;64.97
35758;BME280;21879;50.110;18.900;2022-07-23T22:48:35;98789.52;;;22.94;64.82
35758;BME280;21879;50.110;18.900;2022-07-23T22:59:05;98798.83;;;23.04;64.69
35758;BME280;21879;50.110;18.900;2022-07-23T23:09:54;98792.96;;;23.10;64.36
35758;BME280;21879;50.110;18.900;2022-07-23T23:20:23;98797.33;;;23.15;64.21
35758;BME280;21879;50.110;18.900;2022-07-23T23:30:52;98802.46;;;22.94;64.09
35758;BME280;21879;50.110;18.900;2022-07-23T23:41:21;98807.27;;;22.90;64.57
35758;BME280;21879;50.110;18.900;2022-07-23T23:51:53;98811.86;;;22.90;64.39
